createdAt,value
2022-12-06T00:00:22.649Z,1.50
2022-12-06T00:02:50.568Z,1.60
2022-12-06T00:05:18.503Z,1.60
2022-12-06T00:07:46.406Z,1.60
2022-12-06T00:10:14.368Z,1.60
2022-12-06T00:12:42.238Z,1.60
2022-12-06T00:15:10.669Z,1.60
2022-12-06T00:17:43.014Z,1.70
2022-12-06T00:20:12.016Z,1.60
2022-12-06T00:22:45.046Z,1.60
2022-12-06T00:25:12.940Z,1.60
2022-12-06T00:27:40.798Z,1.70
2022-12-06T00:30:10.068Z,1.70
2022-12-06T00:32:39.321Z,1.70
2022-12-06T00:35:08.188Z,1.70
2022-12-06T00:37:36.078Z,1.70
2022-12-06T00:40:04.315Z,1.70
2022-12-06T00:42:32.195Z,1.70
2022-12-06T00:45:00.060Z,1.60
2022-12-06T00:47:27.919Z,1.60
2022-12-06T00:49:57.486Z,1.50
2022-12-06T00:52:25.690Z,1.40
2022-12-06T00:54:53.557Z,1.30
2022-12-06T00:57:21.437Z,1.20
2022-12-06T00:59:49.283Z,1.20
2022-12-06T01:02:17.186Z,1.20
2022-12-06T01:04:45.075Z,1.10
2022-12-06T01:07:14.338Z,1.10
2022-12-06T01:09:42.470Z,1.00
2022-12-06T01:12:10.245Z,1.00
2022-12-06T01:14:38.033Z,0.90
2022-12-06T01:17:05.904Z,0.80
2022-12-06T01:19:33.731Z,0.70
2022-12-06T01:22:01.555Z,0.60
2022-12-06T01:24:30.730Z,0.50
2022-12-06T01:26:58.557Z,0.50
2022-12-06T01:29:26.364Z,0.30
2022-12-06T01:31:54.162Z,0.20
2022-12-06T01:34:21.987Z,0.10
2022-12-06T01:36:50.839Z,0.00
2022-12-06T01:39:18.675Z,-0.10
2022-12-06T01:41:47.909Z,-0.20
2022-12-06T01:44:40.215Z,-0.30
2022-12-06T01:47:14.306Z,-0.40
2022-12-06T01:49:43.358Z,-0.40
2022-12-06T01:52:14.160Z,-0.50
2022-12-06T01:54:42.274Z,-0.60
2022-12-06T01:57:14.403Z,-0.60
2022-12-06T01:59:42.377Z,-0.70
2022-12-06T02:02:10.558Z,-0.80
2022-12-06T02:04:39.906Z,-0.80
2022-12-06T02:07:08.954Z,-0.80
2022-12-06T02:09:37.838Z,-0.80
2022-12-06T02:12:07.411Z,-0.80
2022-12-06T02:14:36.778Z,-0.70
2022-12-06T02:17:21.523Z,-0.70
2022-12-06T02:20:05.681Z,-0.60
2022-12-06T02:22:51.503Z,-0.60
2022-12-06T02:25:43.579Z,-0.60
2022-12-06T02:28:27.395Z,-0.70
2022-12-06T02:31:05.020Z,-0.70
2022-12-06T02:33:39.664Z,-0.70
2022-12-06T02:36:13.461Z,-0.80
2022-12-06T02:38:47.754Z,-0.80
2022-12-06T02:41:22.741Z,-0.80
2022-12-06T02:43:55.702Z,-0.80
2022-12-06T02:46:29.623Z,-0.80
2022-12-06T02:48:59.850Z,-0.80
2022-12-06T02:51:30.033Z,-0.70
2022-12-06T02:54:01.760Z,-0.60
2022-12-06T02:56:31.906Z,-0.60
2022-12-06T02:58:59.899Z,-0.60
2022-12-06T03:01:31.853Z,-0.60
2022-12-06T03:04:11.790Z,-0.50
2022-12-06T03:06:57.083Z,-0.50
2022-12-06T03:09:37.660Z,-0.50
2022-12-06T03:12:11.295Z,-0.50
2022-12-06T03:14:47.337Z,-0.50
2022-12-06T03:17:23.891Z,-0.40
2022-12-06T03:19:56.889Z,-0.40
2022-12-06T03:22:34.432Z,-0.40
2022-12-06T03:25:06.466Z,-0.50
2022-12-06T03:27:36.471Z,-0.50
2022-12-06T03:30:08.334Z,-0.50
2022-12-06T03:32:39.551Z,-0.50
2022-12-06T03:35:11.451Z,-0.50
2022-12-06T03:37:41.942Z,-0.50
2022-12-06T03:40:17.594Z,-0.60
2022-12-06T03:42:45.795Z,-0.60
2022-12-06T03:45:14.838Z,-0.60
2022-12-06T03:47:52.799Z,-0.60
2022-12-06T03:50:24.378Z,-0.60
2022-12-06T03:52:53.137Z,-0.60
2022-12-06T03:55:21.063Z,-0.60
2022-12-06T03:57:48.890Z,-0.60
2022-12-06T04:00:17.808Z,-0.50
2022-12-06T04:02:47.062Z,-0.50
2022-12-06T04:05:15.333Z,-0.50
2022-12-06T04:07:43.189Z,-0.50
2022-12-06T04:10:11.653Z,-0.60
2022-12-06T04:12:57.090Z,-0.60
2022-12-06T04:15:24.927Z,-0.70
2022-12-06T04:18:13.155Z,-0.70
2022-12-06T04:21:00.600Z,-0.70
2022-12-06T04:23:30.452Z,-0.70
2022-12-06T04:25:58.318Z,-0.70
2022-12-06T04:28:43.648Z,-0.70
2022-12-06T04:31:29.503Z,-0.70
2022-12-06T04:34:16.446Z,-0.60
2022-12-06T04:37:01.934Z,-0.60
2022-12-06T04:39:29.841Z,-0.60
2022-12-06T04:42:15.388Z,-0.60
2022-12-06T04:44:43.496Z,-0.60
2022-12-06T04:47:11.827Z,-0.60
2022-12-06T04:49:41.655Z,-0.50
2022-12-06T04:52:10.823Z,-0.50
2022-12-06T04:54:38.990Z,-0.40
2022-12-06T04:57:10.922Z,-0.40
2022-12-06T04:59:39.663Z,-0.40
2022-12-06T05:02:09.955Z,-0.40
2022-12-06T05:04:37.816Z,-0.40
2022-12-06T05:07:07.003Z,-0.40
2022-12-06T05:09:34.837Z,-0.30
2022-12-06T05:12:02.682Z,-0.30
2022-12-06T05:14:30.782Z,-0.30
2022-12-06T05:16:58.871Z,-0.30
2022-12-06T05:19:27.626Z,-0.30
2022-12-06T05:21:55.474Z,-0.30
2022-12-06T05:24:24.649Z,-0.30
2022-12-06T05:26:52.448Z,-0.30
2022-12-06T05:29:20.589Z,-0.20
2022-12-06T05:31:48.533Z,-0.20
2022-12-06T05:34:16.406Z,-0.20
2022-12-06T05:36:45.845Z,-0.20
2022-12-06T05:39:13.682Z,-0.20
2022-12-06T05:41:42.847Z,-0.20
2022-12-06T05:44:12.362Z,-0.10
2022-12-06T05:46:40.188Z,-0.10
2022-12-06T05:49:08.062Z,-0.10
2022-12-06T05:51:35.909Z,-0.10
2022-12-06T05:54:05.828Z,-0.10
2022-12-06T05:56:34.204Z,-0.10
2022-12-06T05:59:06.670Z,-0.10
2022-12-06T06:01:34.539Z,-0.10
2022-12-06T06:04:02.631Z,-0.10
2022-12-06T06:06:30.522Z,-0.10
2022-12-06T06:08:58.377Z,-0.10
2022-12-06T06:11:26.210Z,-0.10
2022-12-06T06:13:54.751Z,-0.20
2022-12-06T06:16:23.957Z,-0.20
2022-12-06T06:18:51.859Z,-0.20
2022-12-06T06:21:19.702Z,-0.10
2022-12-06T06:23:47.526Z,-0.10
2022-12-06T06:26:15.402Z,-0.10
2022-12-06T06:28:43.210Z,0.00
2022-12-06T06:31:11.067Z,0.00
2022-12-06T06:33:40.271Z,0.00
2022-12-06T06:36:09.046Z,0.00
2022-12-06T06:38:36.892Z,0.00
2022-12-06T06:41:05.372Z,0.00
2022-12-06T06:43:33.546Z,0.00
2022-12-06T06:46:03.035Z,0.00
2022-12-06T06:48:33.045Z,0.00
2022-12-06T06:51:05.271Z,0.00
2022-12-06T06:53:33.714Z,0.00
2022-12-06T06:56:02.693Z,0.00
2022-12-06T06:58:36.403Z,0.10
2022-12-06T07:01:06.527Z,0.10
2022-12-06T07:03:34.680Z,0.10
2022-12-06T07:06:10.237Z,0.20
2022-12-06T07:08:39.101Z,0.20
2022-12-06T07:11:07.498Z,0.20
2022-12-06T07:13:35.326Z,0.20
2022-12-06T07:16:04.492Z,0.20
2022-12-06T07:18:32.473Z,0.20
2022-12-06T07:21:03.752Z,0.30
2022-12-06T07:23:34.160Z,0.30
2022-12-06T07:26:03.768Z,0.30
2022-12-06T07:28:31.616Z,0.30
2022-12-06T07:30:59.505Z,0.30
2022-12-06T07:33:27.418Z,0.40
2022-12-06T07:36:12.422Z,0.30
2022-12-06T07:38:43.216Z,0.40
2022-12-06T07:41:31.159Z,0.40
2022-12-06T07:44:14.340Z,0.50
2022-12-06T07:46:42.210Z,0.50
2022-12-06T07:49:11.340Z,0.50
2022-12-06T07:51:40.039Z,0.50
2022-12-06T07:54:09.401Z,0.60
2022-12-06T07:56:37.372Z,0.60
2022-12-06T07:59:05.232Z,0.60
2022-12-06T08:01:33.285Z,0.60
2022-12-06T08:04:01.682Z,0.60
2022-12-06T08:06:30.859Z,0.70
2022-12-06T08:08:58.838Z,0.80
2022-12-06T08:11:28.815Z,0.80
2022-12-06T08:13:56.888Z,0.80
2022-12-06T08:16:24.847Z,0.80
2022-12-06T08:18:53.601Z,0.80
2022-12-06T08:21:21.536Z,0.80
2022-12-06T08:23:49.392Z,0.90
2022-12-06T08:26:18.694Z,0.90
2022-12-06T08:28:48.151Z,1.00
2022-12-06T08:31:18.088Z,1.10
2022-12-06T08:33:46.364Z,1.10
2022-12-06T08:36:16.262Z,1.00
2022-12-06T08:38:44.402Z,1.10
2022-12-06T08:41:27.279Z,1.10
2022-12-06T08:43:57.467Z,1.20
2022-12-06T08:46:25.743Z,1.30
2022-12-06T08:48:54.023Z,1.20
2022-12-06T08:51:22.141Z,1.20
2022-12-06T08:53:50.270Z,1.20
2022-12-06T08:56:18.090Z,1.30
2022-12-06T08:58:45.927Z,1.40
2022-12-06T09:01:17.244Z,1.30
2022-12-06T09:03:45.282Z,1.30
2022-12-06T09:06:13.114Z,1.30
2022-12-06T09:08:41.306Z,1.30
2022-12-06T09:11:10.064Z,1.40
2022-12-06T09:13:38.725Z,1.40
2022-12-06T09:16:08.036Z,1.50
2022-12-06T09:18:37.431Z,1.60
2022-12-06T09:21:06.980Z,1.60
2022-12-06T09:23:34.989Z,1.70
2022-12-06T09:26:03.194Z,1.70
2022-12-06T09:28:32.226Z,1.80
2022-12-06T09:31:00.173Z,1.80
2022-12-06T09:33:28.031Z,1.90
2022-12-06T09:35:58.127Z,1.90
2022-12-06T09:38:28.818Z,1.90
2022-12-06T09:41:05.700Z,1.90
2022-12-06T09:43:48.881Z,1.90
2022-12-06T09:46:39.125Z,1.90
2022-12-06T09:49:19.682Z,1.90
2022-12-06T09:52:03.834Z,1.90
2022-12-06T09:54:53.479Z,1.90
2022-12-06T09:57:33.810Z,1.90
2022-12-06T10:00:10.988Z,2.00
2022-12-06T10:03:05.545Z,1.90
2022-12-06T10:05:42.603Z,1.90
2022-12-06T10:08:24.236Z,1.90
2022-12-06T10:11:02.730Z,1.90
2022-12-06T10:13:47.410Z,1.90
2022-12-06T10:16:25.346Z,2.10
2022-12-06T10:19:08.203Z,2.20
2022-12-06T10:21:46.374Z,2.30
2022-12-06T10:24:28.457Z,2.40
2022-12-06T10:27:02.525Z,2.40
2022-12-06T10:29:39.051Z,2.40
2022-12-06T10:32:16.411Z,2.50
2022-12-06T10:34:53.557Z,2.40
2022-12-06T10:37:32.960Z,2.40
2022-12-06T10:40:08.139Z,2.40
2022-12-06T10:42:41.188Z,2.50
2022-12-06T10:45:38.393Z,2.50
2022-12-06T10:48:13.749Z,2.70
2022-12-06T10:50:42.902Z,2.70
2022-12-06T10:53:15.619Z,2.80
2022-12-06T10:55:50.143Z,2.90
2022-12-06T10:58:28.302Z,3.00
2022-12-06T11:00:59.810Z,3.10
2022-12-06T11:03:33.278Z,3.20
2022-12-06T11:06:08.134Z,3.20
2022-12-06T11:08:40.341Z,3.10
2022-12-06T11:11:15.898Z,3.20
2022-12-06T11:13:48.564Z,3.40
2022-12-06T11:16:22.865Z,3.30
2022-12-06T11:18:52.022Z,3.30
2022-12-06T11:21:27.604Z,3.50
2022-12-06T11:24:02.023Z,3.50
2022-12-06T11:26:39.012Z,3.60
2022-12-06T11:29:12.770Z,3.70
2022-12-06T11:31:44.678Z,3.90
2022-12-06T11:34:18.638Z,3.90
2022-12-06T11:36:47.478Z,3.90
2022-12-06T11:39:16.753Z,4.00
2022-12-06T11:41:50.102Z,4.10
2022-12-06T11:44:21.693Z,4.20
2022-12-06T11:46:54.491Z,4.30
2022-12-06T11:49:28.383Z,4.00
2022-12-06T11:51:58.732Z,3.90
2022-12-06T11:54:31.732Z,3.80
2022-12-06T11:57:12.008Z,3.60
2022-12-06T11:59:39.834Z,3.60
2022-12-06T12:02:27.839Z,3.50
2022-12-06T12:04:55.673Z,3.50
2022-12-06T12:07:25.977Z,3.60
2022-12-06T12:09:57.409Z,3.50
2022-12-06T12:12:49.425Z,3.50
2022-12-06T12:15:19.237Z,3.40
2022-12-06T12:17:49.896Z,3.40
2022-12-06T12:20:24.794Z,3.50
2022-12-06T12:22:58.185Z,3.70
2022-12-06T12:25:28.724Z,3.80
2022-12-06T12:27:58.623Z,3.90
2022-12-06T12:30:33.133Z,4.00
2022-12-06T12:33:15.666Z,4.30
2022-12-06T12:35:45.653Z,4.50
2022-12-06T12:38:22.647Z,4.30
2022-12-06T12:40:53.160Z,4.20
2022-12-06T12:43:25.406Z,4.20
2022-12-06T12:46:16.919Z,4.30
2022-12-06T12:48:47.197Z,4.20
2022-12-06T12:51:29.614Z,4.20
2022-12-06T12:54:01.096Z,4.30
2022-12-06T12:56:31.580Z,4.10
2022-12-06T12:59:03.579Z,3.90
2022-12-06T13:01:40.274Z,3.90
2022-12-06T13:04:21.694Z,4.10
2022-12-06T13:06:53.038Z,4.30
2022-12-06T13:09:26.019Z,4.40
2022-12-06T13:11:59.969Z,4.40
2022-12-06T13:14:30.481Z,4.40
2022-12-06T13:17:06.268Z,4.30
2022-12-06T13:19:37.941Z,4.20
2022-12-06T13:22:07.142Z,4.30
2022-12-06T13:24:37.474Z,4.30
2022-12-06T13:27:12.520Z,4.20
2022-12-06T13:29:45.243Z,4.10
2022-12-06T13:32:17.268Z,4.10
2022-12-06T13:34:50.289Z,4.00
2022-12-06T13:37:29.894Z,4.00
2022-12-06T13:39:58.479Z,3.90
2022-12-06T13:42:43.588Z,4.00
2022-12-06T13:45:41.999Z,3.80
2022-12-06T13:48:52.700Z,3.80
2022-12-06T13:51:43.803Z,3.80
2022-12-06T13:54:31.685Z,3.80
2022-12-06T13:57:00.895Z,3.70
2022-12-06T13:59:41.390Z,3.70
2022-12-06T14:02:52.261Z,3.70
2022-12-06T14:08:30.927Z,3.70
2022-12-06T14:11:24.486Z,3.60
2022-12-06T14:14:02.374Z,3.60
2022-12-06T14:16:35.181Z,3.50
2022-12-06T14:19:13.323Z,3.50
2022-12-06T14:21:45.263Z,3.50
2022-12-06T14:24:29.765Z,3.50
2022-12-06T14:27:05.105Z,3.50
2022-12-06T14:29:33.402Z,3.40
2022-12-06T14:32:01.290Z,3.40
2022-12-06T14:34:30.656Z,3.40
2022-12-06T14:37:00.706Z,3.40
2022-12-06T14:39:31.920Z,3.40
2022-12-06T14:42:19.489Z,3.50
2022-12-06T14:44:51.600Z,3.50
2022-12-06T14:47:21.534Z,3.50
2022-12-06T14:50:10.573Z,3.40
2022-12-06T14:52:56.722Z,3.40
2022-12-06T14:55:24.945Z,3.30
2022-12-06T14:57:57.327Z,3.30
2022-12-06T15:00:27.964Z,3.30
2022-12-06T15:03:07.199Z,3.30
2022-12-06T15:05:37.899Z,3.30
2022-12-06T15:08:33.099Z,3.30
2022-12-06T15:11:02.597Z,3.30
2022-12-06T15:13:29.945Z,3.30
2022-12-06T15:16:15.328Z,3.20
2022-12-06T15:18:45.842Z,3.10
2022-12-06T15:21:15.866Z,3.10
2022-12-06T15:23:50.874Z,3.10
2022-12-06T15:26:20.462Z,3.20
2022-12-06T15:28:48.900Z,3.10
2022-12-06T15:31:20.883Z,3.10
2022-12-06T15:33:49.686Z,3.10
2022-12-06T15:36:19.131Z,3.10
2022-12-06T15:38:47.495Z,3.10
2022-12-06T15:41:19.274Z,3.10
2022-12-06T15:43:47.749Z,3.10
2022-12-06T15:46:19.702Z,3.10
2022-12-06T15:48:48.406Z,3.10
2022-12-06T15:51:20.872Z,3.10
2022-12-06T15:53:50.925Z,3.00
2022-12-06T15:56:21.857Z,3.10
2022-12-06T15:58:50.389Z,3.00
2022-12-06T16:01:20.932Z,3.10
2022-12-06T16:03:48.831Z,3.00
2022-12-06T16:06:18.082Z,3.00
2022-12-06T16:08:46.804Z,3.00
2022-12-06T16:11:17.319Z,3.00
2022-12-06T16:13:46.760Z,2.90
2022-12-06T16:16:16.485Z,2.90
2022-12-06T16:18:44.447Z,2.90
2022-12-06T16:21:21.057Z,2.90
2022-12-06T16:24:13.175Z,2.80
2022-12-06T16:26:44.429Z,2.90
2022-12-06T16:29:16.818Z,2.80
2022-12-06T16:31:45.181Z,2.80
2022-12-06T16:34:13.592Z,2.80
2022-12-06T16:36:59.681Z,2.70
2022-12-06T16:39:27.962Z,2.70
2022-12-06T16:41:55.856Z,2.60
2022-12-06T16:44:25.529Z,2.60
2022-12-06T16:46:53.620Z,2.50
2022-12-06T16:52:11.423Z,2.30
2022-12-06T16:54:41.427Z,2.20
2022-12-06T16:57:10.283Z,2.20
2022-12-06T16:59:40.292Z,2.20
2022-12-06T17:02:27.478Z,2.20
2022-12-06T17:04:55.868Z,2.20
2022-12-06T17:07:24.006Z,2.10
2022-12-06T17:09:51.834Z,2.10
2022-12-06T17:12:19.912Z,2.10
2022-12-06T17:14:49.061Z,2.10
2022-12-06T17:17:18.267Z,2.10
2022-12-06T17:19:46.212Z,2.10
2022-12-06T17:22:16.653Z,2.10
2022-12-06T17:24:44.598Z,2.10
2022-12-06T17:27:14.750Z,2.10
2022-12-06T17:29:43.878Z,2.00
2022-12-06T17:32:13.924Z,2.00
2022-12-06T17:34:41.756Z,2.00
2022-12-06T17:37:10.082Z,2.00
2022-12-06T17:39:38.002Z,2.00
2022-12-06T17:42:23.961Z,2.00
2022-12-06T17:44:52.009Z,2.00
2022-12-06T17:47:21.395Z,2.00
2022-12-06T17:49:49.213Z,2.10
2022-12-06T17:52:17.786Z,2.00
2022-12-06T17:54:46.189Z,2.00
2022-12-06T17:57:17.952Z,2.00
2022-12-06T17:59:47.126Z,1.90
2022-12-06T18:02:16.889Z,2.00
2022-12-06T18:04:47.975Z,1.90
2022-12-06T18:07:17.540Z,1.90
2022-12-06T18:09:45.966Z,1.90
2022-12-06T18:12:15.503Z,1.90
2022-12-06T18:14:43.484Z,1.90
2022-12-06T18:17:11.682Z,1.90
2022-12-06T18:19:40.784Z,1.90
2022-12-06T18:22:10.016Z,1.90
2022-12-06T18:24:37.930Z,1.90
2022-12-06T18:27:06.231Z,1.90
2022-12-06T18:29:34.973Z,1.80
2022-12-06T18:32:04.336Z,1.80
2022-12-06T18:34:32.321Z,1.80
2022-12-06T18:37:00.284Z,1.80
2022-12-06T18:39:29.449Z,1.80
2022-12-06T18:41:58.049Z,1.80
2022-12-06T18:44:25.890Z,1.80
2022-12-06T18:46:53.972Z,1.90
2022-12-06T18:49:21.923Z,1.80
2022-12-06T18:51:49.774Z,1.80
2022-12-06T18:54:17.687Z,1.80
2022-12-06T18:56:46.830Z,1.70
2022-12-06T18:59:14.689Z,1.70
2022-12-06T19:01:42.963Z,1.70
2022-12-06T19:04:14.787Z,1.70
2022-12-06T19:06:44.349Z,1.80
2022-12-06T19:09:13.919Z,1.70
2022-12-06T19:11:43.883Z,1.70
2022-12-06T19:14:13.555Z,1.70
2022-12-06T19:16:43.532Z,1.70
2022-12-06T19:19:16.677Z,1.70
2022-12-06T19:21:46.023Z,1.60
2022-12-06T19:24:15.860Z,1.60
2022-12-06T19:26:43.952Z,1.50
2022-12-06T19:29:13.694Z,1.50
2022-12-06T19:31:41.566Z,1.40
2022-12-06T19:34:16.227Z,1.40
2022-12-06T19:36:44.384Z,1.40
2022-12-06T19:39:13.760Z,1.50
2022-12-06T19:41:56.256Z,1.40
2022-12-06T19:44:26.096Z,1.40
2022-12-06T19:46:54.018Z,1.40
2022-12-06T19:49:23.983Z,1.40
2022-12-06T19:51:52.795Z,1.40
2022-12-06T19:54:23.263Z,1.40
2022-12-06T19:56:53.249Z,1.30
2022-12-06T19:59:21.485Z,1.30
2022-12-06T20:01:51.520Z,1.30
2022-12-06T20:04:21.133Z,1.30
2022-12-06T20:06:49.129Z,1.30
2022-12-06T20:09:17.268Z,1.30
2022-12-06T20:12:05.218Z,1.30
2022-12-06T20:14:39.045Z,1.30
2022-12-06T20:17:09.928Z,1.40
2022-12-06T20:19:38.207Z,1.30
2022-12-06T20:22:06.129Z,1.30
2022-12-06T20:24:34.060Z,1.30
2022-12-06T20:27:01.965Z,1.20
2022-12-06T20:29:30.012Z,1.20
2022-12-06T20:32:00.048Z,1.20
2022-12-06T20:34:33.934Z,1.20
2022-12-06T20:37:04.084Z,1.20
2022-12-06T20:39:34.986Z,1.20
2022-12-06T20:42:03.946Z,1.20
2022-12-06T20:44:31.823Z,1.20
2022-12-06T20:47:00.119Z,1.30
2022-12-06T20:49:29.469Z,1.30
2022-12-06T20:51:58.014Z,1.30
2022-12-06T20:54:25.806Z,1.30
2022-12-06T20:56:53.731Z,1.30
2022-12-06T20:59:22.415Z,1.20
2022-12-06T21:01:50.496Z,1.30
2022-12-06T21:04:18.460Z,1.30
2022-12-06T21:06:47.662Z,1.20
2022-12-06T21:09:15.540Z,1.20
2022-12-06T21:11:43.469Z,1.20
2022-12-06T21:14:13.226Z,1.30
2022-12-06T21:16:42.844Z,1.30
2022-12-06T21:19:14.150Z,1.30
2022-12-06T21:21:45.831Z,1.30
2022-12-06T21:24:17.430Z,1.20
2022-12-06T21:26:45.597Z,1.20
2022-12-06T21:29:16.803Z,1.20
2022-12-06T21:31:45.206Z,1.20
2022-12-06T21:34:13.872Z,1.20
2022-12-06T21:36:42.168Z,1.20
2022-12-06T21:39:11.268Z,1.30
2022-12-06T21:41:40.766Z,1.30
2022-12-06T21:44:08.598Z,1.30
2022-12-06T21:46:36.465Z,1.30
2022-12-06T21:49:04.349Z,1.20
2022-12-06T21:51:32.834Z,1.20
2022-12-06T21:54:01.393Z,1.30
2022-12-06T21:56:30.746Z,1.20
2022-12-06T21:59:01.103Z,1.20
2022-12-06T22:01:30.553Z,1.20
2022-12-06T22:04:02.078Z,1.30
2022-12-06T22:06:31.327Z,1.20
2022-12-06T22:09:00.503Z,1.20
2022-12-06T22:11:29.584Z,1.20
2022-12-06T22:14:00.038Z,1.20
2022-12-06T22:16:28.652Z,1.20
2022-12-06T22:18:56.790Z,1.20
2022-12-06T22:21:27.230Z,1.20
2022-12-06T22:23:57.346Z,1.20
2022-12-06T22:26:28.130Z,1.20
2022-12-06T22:28:56.310Z,1.20
2022-12-06T22:31:27.884Z,1.20
2022-12-06T22:33:57.996Z,1.20
2022-12-06T22:36:26.093Z,1.20
2022-12-06T22:38:55.653Z,1.30
2022-12-06T22:41:24.410Z,1.30
2022-12-06T22:43:53.457Z,1.30
2022-12-06T22:46:21.924Z,1.30
2022-12-06T22:48:51.316Z,1.30
2022-12-06T22:51:21.017Z,1.30
2022-12-06T22:53:52.689Z,1.30
2022-12-06T22:56:20.809Z,1.30
2022-12-06T22:58:49.212Z,1.20
2022-12-06T23:01:19.749Z,1.20
2022-12-06T23:03:48.928Z,1.20
2022-12-06T23:06:20.698Z,1.20
2022-12-06T23:08:48.675Z,1.20
2022-12-06T23:11:18.787Z,1.20
2022-12-06T23:13:47.135Z,1.20
2022-12-06T23:16:16.446Z,1.20
2022-12-06T23:18:44.664Z,1.20
2022-12-06T23:21:15.981Z,1.20
2022-12-06T23:23:47.666Z,1.30
2022-12-06T23:26:17.405Z,1.20
2022-12-06T23:28:46.382Z,1.20
2022-12-06T23:31:16.929Z,1.20
2022-12-06T23:33:46.248Z,1.20
2022-12-06T23:36:15.871Z,1.20
2022-12-06T23:38:45.598Z,1.20
2022-12-06T23:41:15.476Z,1.20
2022-12-06T23:43:43.538Z,1.20
2022-12-06T23:46:12.845Z,1.20
2022-12-06T23:48:40.669Z,1.20
2022-12-06T23:51:11.404Z,1.20
2022-12-06T23:53:40.080Z,1.20
2022-12-06T23:56:12.148Z,1.20
2022-12-06T23:58:40.745Z,1.20
